Southampton Township, New Jersey
Current Conditions -  °F | °C
As of 9:54 PM on Saturday 24 Jan 2015 (Local Time) from KVAY Reporting Station
Broken Clouds Broken Clouds  
Wind Chill: 30°   Ceiling: 7500
Heat Index: 36°   Visibility: 10mi
Dew Point: 25°   Wind: 8mph
Humidity: 64%   Direction: 280°W
Pressure: 29.52"   Gusts: NA
Location:  39.7955°N, 74.6301°W
Report Text: KVAY 250254Z AUTO 28007KT 10SM BKN075 02/M04 A2952 RMK AO2 SLP998 T00221039 53023
Loading
Personal Weather Stations






























Interactive Weather Map New forecast layout! Learn more

10-Day Weather Forecast

Advertisements
Track Severe Weather on mobile